createdAt,value
2023-01-19T00:01:31.821Z,3.83
2023-01-19T00:03:36.995Z,3.58
2023-01-19T00:05:42.777Z,4.47
2023-01-19T00:07:44.413Z,4.15
2023-01-19T00:09:51.922Z,3.33
2023-01-19T00:11:53.760Z,2.63
2023-01-19T00:14:14.086Z,3.17
2023-01-19T00:16:17.528Z,3.53
2023-01-19T00:18:25.848Z,3.28
2023-01-19T00:20:32.816Z,2.90
2023-01-19T00:22:34.388Z,3.60
2023-01-19T00:24:35.939Z,3.35
2023-01-19T00:29:00.751Z,3.20
2023-01-19T00:31:02.252Z,2.40
2023-01-19T00:33:06.769Z,2.92
2023-01-19T00:35:26.651Z,2.85
2023-01-19T00:37:33.960Z,4.13
2023-01-19T00:39:35.473Z,2.50
2023-01-19T00:41:55.826Z,3.63
2023-01-19T00:43:57.293Z,4.18
2023-01-19T00:45:58.828Z,2.70
2023-01-19T00:50:13.904Z,4.22
2023-01-19T00:52:15.388Z,3.60
2023-01-19T00:54:16.902Z,2.90
2023-01-19T00:56:21.179Z,3.10
2023-01-19T00:58:28.620Z,3.13
2023-01-19T01:00:30.100Z,3.80
2023-01-19T01:02:31.962Z,4.30
2023-01-19T01:04:36.199Z,2.65
2023-01-19T01:06:43.588Z,3.30
2023-01-19T01:09:11.880Z,4.03
2023-01-19T01:11:19.524Z,3.97
2023-01-19T01:13:39.456Z,3.00
2023-01-19T01:15:44.051Z,3.65
2023-01-19T01:17:48.459Z,3.20
2023-01-19T01:19:49.925Z,4.63
2023-01-19T01:21:55.609Z,2.70
2023-01-19T01:24:00.110Z,3.03
2023-01-19T01:26:02.174Z,3.05
2023-01-19T01:28:08.735Z,2.63
2023-01-19T01:30:29.055Z,2.80
2023-01-19T01:32:30.591Z,3.25
2023-01-19T01:34:32.047Z,3.45
2023-01-19T01:36:33.580Z,3.92
2023-01-19T01:38:35.137Z,3.47
2023-01-19T01:40:55.184Z,3.80
2023-01-19T01:43:10.589Z,4.30
2023-01-19T01:45:26.989Z,4.50
2023-01-19T01:47:38.316Z,3.83
2023-01-19T01:49:39.835Z,4.50
2023-01-19T01:51:46.930Z,3.83
2023-01-19T01:53:52.495Z,4.35
2023-01-19T01:55:56.808Z,3.45
2023-01-19T01:58:01.549Z,4.10
2023-01-19T02:00:06.677Z,4.10
2023-01-19T02:02:29.904Z,4.45
2023-01-19T02:04:31.729Z,4.70
2023-01-19T02:06:33.835Z,3.63
2023-01-19T02:09:06.678Z,3.60
2023-01-19T02:11:32.892Z,3.60
2023-01-19T02:13:36.336Z,4.47
2023-01-19T02:15:58.372Z,4.05
2023-01-19T02:17:59.869Z,4.28
2023-01-19T02:20:04.496Z,4.05
2023-01-19T02:22:14.882Z,3.38
2023-01-19T02:24:19.892Z,4.18
2023-01-19T02:26:22.832Z,3.45
2023-01-19T02:28:26.039Z,3.00
2023-01-19T02:30:27.878Z,4.07
2023-01-19T02:32:35.272Z,3.40
2023-01-19T02:35:00.503Z,3.95
2023-01-19T02:37:20.776Z,3.88
2023-01-19T02:39:50.183Z,4.82
2023-01-19T02:42:29.733Z,4.15
2023-01-19T02:44:49.971Z,3.47
2023-01-19T02:47:05.097Z,4.35
2023-01-19T02:49:18.426Z,4.78
2023-01-19T02:51:33.312Z,4.15
2023-01-19T02:53:53.504Z,4.15
2023-01-19T02:56:17.080Z,4.18
2023-01-19T02:58:39.702Z,4.40
2023-01-19T03:00:55.423Z,4.25
2023-01-19T03:03:10.187Z,3.55
2023-01-19T03:05:28.909Z,4.03
2023-01-19T03:07:45.484Z,3.83
2023-01-19T03:10:15.588Z,4.03
2023-01-19T03:12:38.719Z,4.65
2023-01-19T03:14:47.700Z,4.40
2023-01-19T03:16:55.687Z,3.80
2023-01-19T03:19:05.003Z,4.43
2023-01-19T03:21:10.519Z,4.03
2023-01-19T03:23:15.571Z,4.43
2023-01-19T03:25:21.759Z,4.38
2023-01-19T03:27:28.635Z,4.20
2023-01-19T03:29:32.363Z,3.67
2023-01-19T03:31:36.949Z,3.35
2023-01-19T03:33:39.299Z,4.13
2023-01-19T03:35:43.656Z,3.85
2023-01-19T03:37:45.579Z,3.97
2023-01-19T03:39:50.178Z,3.22
2023-01-19T03:41:56.658Z,4.90
2023-01-19T03:44:01.339Z,3.70
2023-01-19T03:46:22.664Z,3.55
2023-01-19T03:48:24.453Z,3.20
2023-01-19T03:50:32.007Z,3.85
2023-01-19T03:52:36.240Z,3.97
2023-01-19T03:54:41.060Z,2.70
2023-01-19T03:57:01.580Z,4.15
2023-01-19T03:59:05.661Z,3.25
2023-01-19T04:01:07.463Z,3.42
2023-01-19T04:03:15.751Z,4.00
2023-01-19T04:05:17.238Z,2.80
2023-01-19T04:09:22.720Z,3.28
2023-01-19T04:11:24.228Z,3.80
2023-01-19T04:13:28.579Z,2.85
2023-01-19T04:15:33.266Z,3.28
2023-01-19T04:17:34.755Z,3.47
2023-01-19T04:19:54.745Z,3.50
2023-01-19T04:21:59.371Z,4.10
2023-01-19T04:24:01.139Z,3.60
2023-01-19T04:26:06.358Z,3.75
2023-01-19T04:28:07.882Z,3.08
2023-01-19T04:30:10.100Z,3.47
2023-01-19T04:32:30.915Z,3.33
2023-01-19T04:34:35.179Z,2.85
2023-01-19T04:36:39.609Z,2.60
2023-01-19T04:40:46.386Z,3.13
2023-01-19T04:43:07.152Z,2.35
2023-01-19T04:45:08.944Z,2.50
2023-01-19T04:47:13.040Z,2.42
2023-01-19T04:49:17.473Z,2.45
2023-01-19T04:51:19.014Z,2.38
2023-01-19T04:53:23.509Z,2.45
2023-01-19T04:55:25.926Z,2.53
2023-01-19T04:57:27.584Z,2.22
2023-01-19T04:59:29.244Z,3.00
2023-01-19T05:01:34.038Z,2.42
2023-01-19T05:03:35.931Z,2.33
2023-01-19T05:05:37.484Z,2.90
2023-01-19T05:09:49.431Z,2.33
2023-01-19T05:11:51.084Z,2.83
2023-01-19T05:13:58.424Z,2.33
2023-01-19T05:16:00.625Z,2.47
2023-01-19T05:18:08.262Z,2.78
2023-01-19T05:20:15.896Z,3.42
2023-01-19T05:22:20.511Z,3.35
2023-01-19T05:24:24.740Z,2.90
2023-01-19T05:26:44.988Z,2.63
2023-01-19T05:28:46.435Z,2.60
2023-01-19T05:30:49.384Z,2.83
2023-01-19T05:32:51.024Z,3.00
2023-01-19T05:34:55.528Z,2.25
2023-01-19T05:37:00.010Z,2.80
2023-01-19T05:39:01.582Z,2.55
2023-01-19T05:41:06.018Z,2.35
2023-01-19T05:45:28.153Z,2.50
2023-01-19T05:47:39.245Z,3.03
2023-01-19T05:50:07.877Z,2.55
2023-01-19T05:52:14.040Z,2.28
2023-01-19T05:54:23.686Z,3.17
2023-01-19T05:56:35.885Z,3.13
2023-01-19T05:58:47.570Z,2.70
2023-01-19T06:03:06.350Z,2.10
2023-01-19T06:05:16.119Z,1.90
2023-01-19T06:07:32.660Z,2.38
2023-01-19T06:09:45.812Z,2.28
2023-01-19T06:11:53.196Z,2.80
2023-01-19T06:13:55.313Z,2.63
2023-01-19T06:16:00.319Z,2.40
2023-01-19T06:18:01.834Z,3.10
2023-01-19T06:20:07.014Z,3.08
2023-01-19T06:22:26.966Z,3.05
2023-01-19T06:24:29.588Z,2.15
2023-01-19T06:26:34.033Z,3.00
2023-01-19T06:30:42.547Z,3.33
2023-01-19T06:32:50.102Z,2.65
2023-01-19T06:36:58.593Z,2.90
2023-01-19T06:39:03.271Z,2.83
2023-01-19T06:41:04.882Z,1.98
2023-01-19T06:43:25.976Z,1.75
2023-01-19T06:45:27.588Z,2.28
2023-01-19T06:47:33.753Z,2.13
2023-01-19T06:49:35.219Z,2.00
2023-01-19T06:51:55.343Z,2.22
2023-01-19T06:53:57.069Z,3.03
2023-01-19T06:55:59.581Z,3.13
2023-01-19T06:58:01.931Z,2.77
2023-01-19T07:00:22.248Z,3.03
2023-01-19T07:02:28.608Z,2.90
2023-01-19T07:04:30.739Z,1.83
2023-01-19T07:06:51.073Z,1.83
2023-01-19T07:08:52.552Z,2.90
2023-01-19T07:11:26.362Z,2.50
2023-01-19T07:13:46.746Z,2.65
2023-01-19T07:15:48.130Z,2.60
2023-01-19T07:17:57.929Z,2.50
2023-01-19T07:20:19.556Z,2.40
2023-01-19T07:22:21.185Z,2.70
2023-01-19T07:24:22.646Z,3.15
2023-01-19T07:26:27.981Z,3.05
2023-01-19T07:28:31.023Z,2.10
2023-01-19T07:30:35.398Z,3.15
2023-01-19T07:32:37.010Z,2.63
2023-01-19T07:34:38.591Z,3.00
2023-01-19T07:36:58.506Z,3.47
2023-01-19T07:39:02.476Z,2.63
2023-01-19T07:41:07.865Z,2.88
2023-01-19T07:43:12.292Z,3.47
2023-01-19T07:45:15.165Z,3.00
2023-01-19T07:47:35.510Z,3.08
2023-01-19T07:49:55.691Z,2.38
2023-01-19T07:51:57.264Z,2.83
2023-01-19T07:54:01.719Z,2.97
2023-01-19T07:56:23.374Z,2.75
2023-01-19T07:58:27.937Z,2.40
2023-01-19T08:04:43.597Z,2.30
2023-01-19T08:07:04.340Z,1.67
2023-01-19T08:09:08.960Z,2.13
2023-01-19T08:11:10.421Z,2.55
2023-01-19T08:13:15.285Z,2.08
2023-01-19T08:15:16.825Z,2.00
2023-01-19T08:17:21.358Z,2.50
2023-01-19T08:19:25.899Z,2.33
2023-01-19T08:21:27.812Z,2.10
2023-01-19T08:23:29.312Z,1.67
2023-01-19T08:25:34.957Z,2.15
2023-01-19T08:27:36.383Z,2.38
2023-01-19T08:31:42.338Z,2.30
2023-01-19T08:33:44.183Z,2.13
2023-01-19T08:35:49.052Z,3.10
2023-01-19T08:37:51.046Z,3.00
2023-01-19T08:39:55.171Z,2.97
2023-01-19T08:41:56.627Z,3.08
2023-01-19T08:43:58.209Z,3.10
2023-01-19T08:46:24.405Z,3.20
2023-01-19T08:48:32.303Z,2.90
2023-01-19T08:50:46.063Z,4.05
2023-01-19T08:53:03.489Z,2.35
2023-01-19T08:55:15.037Z,3.15
2023-01-19T08:57:28.417Z,2.80
2023-01-19T08:59:41.957Z,5.20
2023-01-19T09:01:51.583Z,4.22
2023-01-19T09:04:08.695Z,5.78
2023-01-19T09:06:19.890Z,6.75
2023-01-19T09:08:27.623Z,7.20
2023-01-19T09:10:44.020Z,8.20
2023-01-19T09:12:51.218Z,5.32
2023-01-19T09:15:06.137Z,5.88
2023-01-19T09:17:13.922Z,6.53
2023-01-19T09:19:20.025Z,5.93
2023-01-19T09:21:40.436Z,5.47
2023-01-19T09:23:44.648Z,5.97
2023-01-19T09:25:56.448Z,4.57
2023-01-19T09:28:01.111Z,6.35
2023-01-19T09:30:11.516Z,7.22
2023-01-19T09:32:13.016Z,5.80
2023-01-19T09:34:14.498Z,5.38
2023-01-19T09:36:16.015Z,7.63
2023-01-19T09:38:20.599Z,7.03
2023-01-19T09:40:28.081Z,6.22
2023-01-19T09:44:36.725Z,6.22
2023-01-19T09:46:45.814Z,5.53
2023-01-19T09:48:50.385Z,7.88
2023-01-19T09:50:53.267Z,7.28
2023-01-19T09:53:01.451Z,6.80
2023-01-19T09:55:25.492Z,6.35
2023-01-19T09:57:45.429Z,5.90
2023-01-19T09:59:49.505Z,5.78
2023-01-19T10:01:53.764Z,5.82
2023-01-19T10:04:09.020Z,6.05
2023-01-19T10:06:11.947Z,6.20
2023-01-19T10:08:25.055Z,4.78
2023-01-19T10:10:32.458Z,6.03
2023-01-19T10:12:46.993Z,6.38
2023-01-19T10:14:54.012Z,6.63
2023-01-19T10:17:32.967Z,6.07
2023-01-19T10:19:38.002Z,6.18
2023-01-19T10:21:43.519Z,6.90
2023-01-19T10:24:11.227Z,6.75
2023-01-19T10:26:17.505Z,9.55
2023-01-19T10:28:23.315Z,10.45
2023-01-19T10:30:28.909Z,11.65
2023-01-19T10:32:32.714Z,12.00
2023-01-19T10:34:37.148Z,13.25
2023-01-19T10:36:39.451Z,11.40
2023-01-19T10:38:41.126Z,9.63
2023-01-19T10:40:55.310Z,9.90
2023-01-19T10:43:00.334Z,9.65
2023-01-19T10:45:17.894Z,7.43
2023-01-19T10:47:31.845Z,9.43
2023-01-19T10:49:37.479Z,10.18
2023-01-19T10:51:47.190Z,8.70
2023-01-19T10:54:04.555Z,7.68
2023-01-19T10:58:26.267Z,7.85
2023-01-19T11:00:37.851Z,16.95
2023-01-19T11:02:58.381Z,6.45
2023-01-19T11:05:22.479Z,5.18
2023-01-19T11:07:26.512Z,5.38
2023-01-19T11:09:33.971Z,5.18
2023-01-19T11:11:41.559Z,4.38
2023-01-19T11:13:43.778Z,3.50
2023-01-19T11:15:45.289Z,3.33
2023-01-19T11:17:48.438Z,2.75
2023-01-19T11:19:54.803Z,3.58
2023-01-19T11:22:24.898Z,3.42
2023-01-19T11:24:30.151Z,3.50
2023-01-19T11:26:42.485Z,5.88
2023-01-19T11:28:48.132Z,6.65
2023-01-19T11:30:56.738Z,8.15
2023-01-19T11:33:01.269Z,7.43
2023-01-19T11:35:24.566Z,5.57
2023-01-19T11:37:28.203Z,5.65
2023-01-19T11:39:31.782Z,5.18
2023-01-19T11:41:37.259Z,4.47
2023-01-19T11:43:48.671Z,4.53
2023-01-19T11:46:11.467Z,4.72
2023-01-19T11:48:21.399Z,4.20
2023-01-19T11:50:24.459Z,4.00
2023-01-19T11:52:28.329Z,3.90
2023-01-19T11:54:38.863Z,5.20
2023-01-19T11:56:45.053Z,5.05
2023-01-19T11:58:48.604Z,5.40
2023-01-19T12:01:14.457Z,6.38
2023-01-19T12:03:26.160Z,6.85
2023-01-19T12:05:35.646Z,10.57
2023-01-19T12:07:39.303Z,10.48
2023-01-19T12:09:44.958Z,11.10
2023-01-19T12:11:50.578Z,11.15
2023-01-19T12:13:56.918Z,10.60
2023-01-19T12:16:01.973Z,11.97
2023-01-19T12:18:07.476Z,8.70
2023-01-19T12:20:22.832Z,8.50
2023-01-19T12:22:29.420Z,7.85
2023-01-19T12:24:38.753Z,6.53
2023-01-19T12:26:53.250Z,6.30
2023-01-19T12:29:04.722Z,6.05
2023-01-19T12:31:09.762Z,5.78
2023-01-19T12:33:21.292Z,5.28
2023-01-19T12:35:41.223Z,4.57
2023-01-19T12:37:43.297Z,4.28
2023-01-19T12:39:50.452Z,4.50
2023-01-19T12:42:05.309Z,3.88
2023-01-19T12:44:14.028Z,4.88
2023-01-19T12:46:34.265Z,4.05
2023-01-19T12:48:35.899Z,4.18
2023-01-19T12:50:38.300Z,3.92
2023-01-19T12:52:47.912Z,3.78
2023-01-19T12:54:54.140Z,3.45
2023-01-19T12:57:00.102Z,3.20
2023-01-19T12:59:07.554Z,2.90
2023-01-19T13:01:17.529Z,3.47
2023-01-19T13:03:19.308Z,2.58
2023-01-19T13:05:39.285Z,3.33
2023-01-19T13:08:13.048Z,2.83
2023-01-19T13:10:36.415Z,2.97
2023-01-19T13:13:03.739Z,2.50
2023-01-19T13:15:27.882Z,2.22
2023-01-19T13:17:34.070Z,1.45
2023-01-19T13:19:44.257Z,2.03
2023-01-19T13:21:55.220Z,2.28
2023-01-19T13:24:16.769Z,1.95
2023-01-19T13:26:21.994Z,1.92
2023-01-19T13:28:30.976Z,1.50
2023-01-19T13:30:36.472Z,1.67
2023-01-19T13:32:40.624Z,1.20
2023-01-19T13:34:51.673Z,1.70
2023-01-19T13:36:59.197Z,1.85
2023-01-19T13:39:11.748Z,2.33
2023-01-19T13:41:16.367Z,1.58
2023-01-19T13:43:32.547Z,1.85
2023-01-19T13:45:37.193Z,1.52
2023-01-19T13:47:48.311Z,1.50
2023-01-19T13:49:57.022Z,1.77
2023-01-19T13:52:17.354Z,2.47
2023-01-19T13:54:26.004Z,1.92
2023-01-19T13:56:50.321Z,1.60
2023-01-19T13:59:05.597Z,1.83
2023-01-19T14:01:18.910Z,1.60
2023-01-19T14:03:23.836Z,1.48
2023-01-19T14:05:28.817Z,1.85
2023-01-19T14:07:30.355Z,1.45
2023-01-19T14:09:34.972Z,1.23
2023-01-19T14:11:39.527Z,1.42
2023-01-19T14:13:59.969Z,1.30
2023-01-19T14:16:06.183Z,1.80
2023-01-19T14:18:11.880Z,1.77
2023-01-19T14:20:29.891Z,1.80
2023-01-19T14:22:38.544Z,1.40
2023-01-19T14:24:45.999Z,1.88
2023-01-19T14:26:52.013Z,2.38
2023-01-19T14:28:53.541Z,1.92
2023-01-19T14:31:02.364Z,2.63
2023-01-19T14:33:04.007Z,2.97
2023-01-19T14:35:06.526Z,2.20
2023-01-19T14:37:22.548Z,1.88
2023-01-19T14:39:31.589Z,1.80
2023-01-19T14:41:37.424Z,1.50
2023-01-19T14:43:44.982Z,1.50
2023-01-19T14:45:52.302Z,1.55
2023-01-19T14:47:56.688Z,1.13
2023-01-19T14:50:22.407Z,1.02
2023-01-19T14:52:53.146Z,1.10
2023-01-19T14:54:58.105Z,0.90
2023-01-19T14:57:01.121Z,0.90
2023-01-19T14:59:13.711Z,1.25
2023-01-19T15:01:37.976Z,0.65
2023-01-19T15:04:10.712Z,0.63
2023-01-19T15:06:27.651Z,0.85
2023-01-19T15:08:34.280Z,0.80
2023-01-19T15:10:41.362Z,1.10
2023-01-19T15:12:46.423Z,1.02
2023-01-19T15:15:03.565Z,1.20
2023-01-19T15:17:25.985Z,1.10
2023-01-19T15:19:29.818Z,0.90
2023-01-19T15:21:58.189Z,1.10
2023-01-19T15:24:14.529Z,1.45
2023-01-19T15:26:29.470Z,1.80
2023-01-19T15:28:34.030Z,1.13
2023-01-19T15:30:44.784Z,1.20
2023-01-19T15:32:57.879Z,1.02
2023-01-19T15:35:12.275Z,0.73
2023-01-19T15:37:13.833Z,0.77
2023-01-19T15:39:15.493Z,0.73
2023-01-19T15:41:24.822Z,0.60
2023-01-19T15:43:32.423Z,0.60
2023-01-19T15:45:35.622Z,0.93
2023-01-19T15:47:37.200Z,1.15
2023-01-19T15:49:44.706Z,1.58
2023-01-19T15:51:46.241Z,1.75
2023-01-19T15:53:48.284Z,2.55
2023-01-19T15:55:58.361Z,2.00
2023-01-19T15:58:02.731Z,2.00
2023-01-19T16:00:10.738Z,1.75
2023-01-19T16:02:18.267Z,1.80
2023-01-19T16:04:38.975Z,2.25
2023-01-19T16:06:46.217Z,1.95
2023-01-19T16:08:59.172Z,2.17
2023-01-19T16:11:07.997Z,1.42
2023-01-19T16:13:10.814Z,1.17
2023-01-19T16:15:16.021Z,1.33
2023-01-19T16:17:17.500Z,1.80
2023-01-19T16:19:19.697Z,1.48
2023-01-19T16:21:40.111Z,1.98
2023-01-19T16:23:47.705Z,1.30
2023-01-19T16:25:59.258Z,1.38
2023-01-19T16:28:00.898Z,1.13
2023-01-19T16:30:04.951Z,1.20
2023-01-19T16:32:12.288Z,1.17
2023-01-19T16:34:20.360Z,1.02
2023-01-19T16:36:23.697Z,1.38
2023-01-19T16:38:25.270Z,1.40
2023-01-19T16:40:32.483Z,1.10
2023-01-19T16:42:40.836Z,1.20
2023-01-19T16:44:42.500Z,1.10
2023-01-19T16:46:45.055Z,1.38
2023-01-19T16:48:52.512Z,1.08
2023-01-19T16:51:01.855Z,1.00
2023-01-19T16:53:09.288Z,1.15
2023-01-19T16:55:11.390Z,1.08
2023-01-19T16:57:19.059Z,0.88
2023-01-19T16:59:27.331Z,0.90
2023-01-19T17:01:35.119Z,0.85
2023-01-19T17:03:38.532Z,1.20
2023-01-19T17:05:50.603Z,1.13
2023-01-19T17:07:52.270Z,1.00
2023-01-19T17:10:12.841Z,1.00
2023-01-19T17:12:20.493Z,0.95
2023-01-19T17:16:30.387Z,1.02
2023-01-19T17:18:33.049Z,0.93
2023-01-19T17:20:34.486Z,0.82
2023-01-19T17:22:36.011Z,1.90
2023-01-19T17:24:42.465Z,2.08
2023-01-19T17:26:45.951Z,1.35
2023-01-19T17:28:47.565Z,2.22
2023-01-19T17:30:52.771Z,2.42
2023-01-19T17:32:54.360Z,2.33
2023-01-19T17:35:02.003Z,1.95
2023-01-19T17:37:03.525Z,2.60
2023-01-19T17:39:06.079Z,2.40
2023-01-19T17:41:17.917Z,2.42
2023-01-19T17:43:25.234Z,2.95
2023-01-19T17:45:26.839Z,2.42
2023-01-19T17:47:28.404Z,3.45
2023-01-19T17:49:37.094Z,2.72
2023-01-19T17:51:38.607Z,2.88
2023-01-19T17:53:43.210Z,2.85
2023-01-19T17:55:44.751Z,3.30
2023-01-19T17:57:52.184Z,3.38
2023-01-19T18:00:13.024Z,3.00
2023-01-19T18:02:24.397Z,3.47
2023-01-19T18:04:34.240Z,3.88
2023-01-19T18:06:47.441Z,3.65
2023-01-19T18:09:03.724Z,4.28
2023-01-19T18:11:13.412Z,4.28
2023-01-19T18:13:17.598Z,3.90
2023-01-19T18:15:43.229Z,3.97
2023-01-19T18:17:59.180Z,4.05
2023-01-19T18:20:13.112Z,4.35
2023-01-19T18:22:17.480Z,3.60
2023-01-19T18:24:29.036Z,4.60
2023-01-19T18:26:39.776Z,3.78
2023-01-19T18:28:57.641Z,3.40
2023-01-19T18:31:23.119Z,3.20
2023-01-19T18:33:35.006Z,3.78
2023-01-19T18:35:40.564Z,3.47
2023-01-19T18:37:42.630Z,3.30
2023-01-19T18:39:44.086Z,3.97
2023-01-19T18:41:45.725Z,3.85
2023-01-19T18:43:56.519Z,3.80
2023-01-19T18:46:01.011Z,4.60
2023-01-19T18:48:02.744Z,4.75
2023-01-19T18:50:04.796Z,4.63
2023-01-19T18:52:12.388Z,4.28
2023-01-19T18:54:13.893Z,4.80
2023-01-19T18:56:16.777Z,4.43
2023-01-19T18:58:18.307Z,4.43
2023-01-19T19:00:38.623Z,5.20
2023-01-19T19:02:43.549Z,4.82
2023-01-19T19:04:47.830Z,6.57
2023-01-19T19:06:55.219Z,6.35
2023-01-19T19:08:57.726Z,5.40
2023-01-19T19:11:02.369Z,5.10
2023-01-19T19:13:03.825Z,6.10
2023-01-19T19:15:14.405Z,5.63
2023-01-19T19:17:19.005Z,5.65
2023-01-19T19:19:26.843Z,4.78
2023-01-19T19:21:28.414Z,4.47
2023-01-19T19:23:30.091Z,4.80
2023-01-19T19:25:37.701Z,4.57
2023-01-19T19:27:40.879Z,5.30
2023-01-19T19:30:01.195Z,3.92
2023-01-19T19:34:12.591Z,4.25
2023-01-19T19:36:17.159Z,4.78
2023-01-19T19:40:41.649Z,4.28
2023-01-19T19:42:48.957Z,4.72
2023-01-19T19:44:52.779Z,4.82
2023-01-19T19:46:54.360Z,3.83
2023-01-19T19:48:55.919Z,3.22
2023-01-19T19:51:18.855Z,3.55
2023-01-19T19:53:21.238Z,4.13
2023-01-19T19:55:25.746Z,4.47
2023-01-19T19:57:46.265Z,4.75
2023-01-19T19:59:50.680Z,3.67
2023-01-19T20:02:12.199Z,3.67
2023-01-19T20:04:21.278Z,4.13
2023-01-19T20:06:28.610Z,3.42
2023-01-19T20:10:52.704Z,4.78
2023-01-19T20:14:58.472Z,3.53
2023-01-19T20:17:06.111Z,5.05
2023-01-19T20:19:13.868Z,3.83
2023-01-19T20:21:19.952Z,4.95
2023-01-19T20:23:21.548Z,4.05
2023-01-19T20:25:25.911Z,5.07
2023-01-19T20:27:45.752Z,4.50
2023-01-19T20:29:51.816Z,5.43
2023-01-19T20:31:57.052Z,4.80
2023-01-19T20:34:06.082Z,5.00
2023-01-19T20:36:07.841Z,5.05
2023-01-19T20:38:09.389Z,4.72
2023-01-19T20:40:11.018Z,4.00
2023-01-19T20:42:31.466Z,4.35
2023-01-19T20:44:39.271Z,4.72
2023-01-19T20:46:40.859Z,3.53
2023-01-19T20:48:42.424Z,4.50
2023-01-19T20:50:44.504Z,3.92
2023-01-19T20:52:46.019Z,4.18
2023-01-19T20:55:08.867Z,3.88
2023-01-19T20:57:10.383Z,4.07
2023-01-19T20:59:12.813Z,5.20
2023-01-19T21:01:15.888Z,4.80
2023-01-19T21:03:17.907Z,4.43
2023-01-19T21:05:19.382Z,4.15
2023-01-19T21:07:21.038Z,4.65
2023-01-19T21:09:23.941Z,5.50
2023-01-19T21:11:25.625Z,5.28
2023-01-19T21:13:48.558Z,4.88
2023-01-19T21:15:52.283Z,4.88
2023-01-19T21:18:03.944Z,4.50
2023-01-19T21:20:11.017Z,5.40
2023-01-19T21:22:14.836Z,4.88
2023-01-19T21:24:21.438Z,4.40
2023-01-19T21:26:25.284Z,4.85
2023-01-19T21:28:36.094Z,5.07
2023-01-19T21:30:39.808Z,4.95
2023-01-19T21:32:46.599Z,4.07
2023-01-19T21:34:50.225Z,4.82
2023-01-19T21:36:53.997Z,4.32
2023-01-19T21:39:06.001Z,4.97
2023-01-19T21:41:12.142Z,5.57
2023-01-19T21:43:20.121Z,5.93
2023-01-19T21:45:27.780Z,6.35
2023-01-19T21:47:29.248Z,7.07
2023-01-19T21:49:31.108Z,6.78
2023-01-19T21:51:33.690Z,7.95
2023-01-19T21:53:35.232Z,6.07
2023-01-19T21:57:47.767Z,7.30
2023-01-19T21:59:54.936Z,8.07
2023-01-19T22:01:56.599Z,6.50
2023-01-19T22:03:58.634Z,6.88
2023-01-19T22:06:03.852Z,7.82
2023-01-19T22:08:06.364Z,6.63
2023-01-19T22:10:09.544Z,6.45
2023-01-19T22:12:29.604Z,7.25
2023-01-19T22:14:34.154Z,4.82
2023-01-19T22:16:35.858Z,6.35
2023-01-19T22:18:37.969Z,5.80
2023-01-19T22:20:39.521Z,6.13
2023-01-19T22:22:44.038Z,7.07
2023-01-19T22:24:49.898Z,7.38
2023-01-19T22:27:10.243Z,7.50
2023-01-19T22:29:11.907Z,6.80
2023-01-19T22:31:32.224Z,6.65
2023-01-19T22:33:36.932Z,5.22
2023-01-19T22:35:44.219Z,6.20
2023-01-19T22:37:45.746Z,7.43
2023-01-19T22:41:53.917Z,6.32
2023-01-19T22:43:56.706Z,5.30
2023-01-19T22:46:01.114Z,4.65
2023-01-19T22:48:02.729Z,4.20
2023-01-19T22:50:04.367Z,4.85
2023-01-19T22:52:05.821Z,4.63
2023-01-19T22:56:15.724Z,3.53
2023-01-19T22:58:17.221Z,4.20
2023-01-19T23:02:28.638Z,3.83
2023-01-19T23:04:32.814Z,5.32
2023-01-19T23:06:40.601Z,5.35
2023-01-19T23:09:01.651Z,5.13
2023-01-19T23:11:07.159Z,5.00
2023-01-19T23:13:14.684Z,5.63
2023-01-19T23:15:22.508Z,6.13
2023-01-19T23:17:27.101Z,5.20
2023-01-19T23:19:28.640Z,5.63
2023-01-19T23:21:30.808Z,6.45
2023-01-19T23:23:35.573Z,8.48
2023-01-19T23:25:43.178Z,8.40
2023-01-19T23:27:44.716Z,10.00
2023-01-19T23:29:49.155Z,8.40
2023-01-19T23:31:57.018Z,8.98
2023-01-19T23:34:06.327Z,7.90
2023-01-19T23:36:08.277Z,9.55
2023-01-19T23:38:12.706Z,9.10
2023-01-19T23:40:20.316Z,9.27
2023-01-19T23:42:21.850Z,8.30
2023-01-19T23:44:29.207Z,8.20
2023-01-19T23:46:36.653Z,8.10
2023-01-19T23:48:44.369Z,7.30
2023-01-19T23:50:48.831Z,5.25
2023-01-19T23:52:56.187Z,5.45
2023-01-19T23:54:58.024Z,5.05
2023-01-19T23:56:59.507Z,4.40
2023-01-19T23:59:02.748Z,5.22
